Terminal Aerodrome Forecast
Issued by NWS

Home | Current Version | Previous Version | Text Only | Print | Product List | Glossary On
Versions: 1 2 3 4 5 6 7 8 9 10 11 12 13 14 15 16 17 18 19 20 21 22 23 24
000
FTUS43 KGRB 310845 AAA
TAFCWA
TAF AMD
KCWA 310845Z 3109/0106 00000KT 1SM BR SCT002
      TEMPO 3110/3114 1/4SM FG BKN002
     FM311400 21005KT P6SM FEW005 BKN015
     FM311600 21009G15KT P6SM SCT020 SCT200
     FM010000 19005KT P6SM BKN250=

USA.gov is the U.S. government's official web portal to all federal, state and local government web resources and services.